MTV weather

Blue Ridge Airport
Martinsville, Virginia, United States

Public forecast

Using degrees Fahrenheit for public forecast. Weather courtesy of forecast.io.

Current aviation weather report (METAR) for Blue Ridge Airport

Retrieved 2019/11/19 11:35 UTC (7 minutes ago):

KMTV 191135Z AUTO 00000KT 1 3/4SM BR OVC001 02/02 A2986 RMK AO2 T00200020

Closest aviation forecast (TAF) to Blue Ridge Airport

Closest forecast is Smith Reynolds Airport, 31.4 nm (58.2 km) SSW. Retrieved 2019/11/19 06:42 UTC (5 hours ago):

TAF KINT 190540Z 1906/2006 00000KT 2SM BR OVC004 TEMPO 1906/1910 1/4SM FG VV001 FM191400 01003KT 5SM BR SCT007 BKN010 FM191600 35003KT P6SM BKN050 FM200000 31002KT P6SM OVC100